createdAt,value
2023-02-25T08:36:35.194Z,415.00
2023-02-25T08:37:30.302Z,409.00
2023-02-25T08:38:25.651Z,422.00
2023-02-25T08:39:21.032Z,406.00
2023-02-25T08:40:18.059Z,403.00
2023-02-25T08:41:11.703Z,412.00
2023-02-25T08:42:07.120Z,418.00
2023-02-25T08:43:02.493Z,403.00
2023-02-25T08:43:57.883Z,409.00
2023-02-25T08:44:53.229Z,415.00
2023-02-25T08:45:48.520Z,422.00
2023-02-25T08:46:43.950Z,395.00
2023-02-25T08:47:39.199Z,405.00
2023-02-25T08:48:34.675Z,415.00
2023-02-25T08:49:29.979Z,414.00
2023-02-25T08:50:25.441Z,403.00
2023-02-25T08:51:21.236Z,394.00
2023-02-25T08:52:16.468Z,400.00
2023-02-25T08:53:11.919Z,422.00
2023-02-25T08:54:07.444Z,415.00
2023-02-25T08:55:02.818Z,403.00
2023-02-25T08:55:58.200Z,406.00
2023-02-25T08:56:53.579Z,394.00
2023-02-25T08:57:49.090Z,414.00
2023-02-25T08:58:44.350Z,399.00
2023-02-25T08:59:39.675Z,400.00
2023-02-25T09:00:35.088Z,398.00
2023-02-25T09:01:30.460Z,420.00
2023-02-25T09:02:26.122Z,399.00
2023-02-25T09:03:21.261Z,417.00
2023-02-25T09:04:16.657Z,403.00
2023-02-25T09:05:11.928Z,404.00
2023-02-25T09:06:07.314Z,412.00
2023-02-25T09:07:02.657Z,407.00
2023-02-25T09:07:58.079Z,403.00
2023-02-25T09:08:53.483Z,404.00
2023-02-25T09:09:48.888Z,405.00
2023-02-25T09:10:50.181Z,399.00
2023-02-25T09:11:40.653Z,402.00
2023-02-25T09:12:35.163Z,400.00
2023-02-25T09:13:30.525Z,400.00
2023-02-25T09:14:25.739Z,394.00
2023-02-25T09:15:21.106Z,400.00
2023-02-25T09:16:16.485Z,396.00
2023-02-25T09:17:12.009Z,403.00
2023-02-25T09:18:07.284Z,396.00
2023-02-25T09:19:02.645Z,422.00
2023-02-25T09:19:58.063Z,408.00
2023-02-25T09:20:53.418Z,406.00
2023-02-25T09:21:48.895Z,400.00
2023-02-25T09:22:44.142Z,406.00
2023-02-25T09:23:39.505Z,397.00
2023-02-25T09:24:34.862Z,406.00
2023-02-25T09:25:30.234Z,401.00
2023-02-25T09:26:25.596Z,394.00
2023-02-25T09:27:21.146Z,401.00
2023-02-25T09:28:16.474Z,413.00
2023-02-25T09:29:11.871Z,397.00
2023-02-25T09:30:07.302Z,440.00
2023-02-25T09:31:02.934Z,418.00
2023-02-25T09:31:58.262Z,400.00
2023-02-25T09:32:53.781Z,415.00
2023-02-25T09:33:49.215Z,406.00
2023-02-25T09:34:44.661Z,388.00
2023-02-25T09:35:40.095Z,396.00
2023-02-25T09:36:35.728Z,415.00
2023-02-25T09:37:31.204Z,398.00
2023-02-25T09:38:26.634Z,399.00
2023-02-25T09:39:22.056Z,415.00
2023-02-25T09:40:17.495Z,397.00
2023-02-25T09:41:12.965Z,391.00
2023-02-25T09:42:08.335Z,412.00
2023-02-25T09:43:03.944Z,397.00
2023-02-25T09:43:59.278Z,426.00
2023-02-25T09:44:54.694Z,409.00
2023-02-25T09:45:50.123Z,406.00
2023-02-25T09:46:45.655Z,396.00
2023-02-25T09:47:41.290Z,389.00
2023-02-25T09:48:36.816Z,397.00
2023-02-25T09:49:32.213Z,402.00
2023-02-25T09:50:27.607Z,404.00
2023-02-25T09:51:23.247Z,409.00
2023-02-25T09:52:18.570Z,408.00
2023-02-25T09:53:13.779Z,417.00
2023-02-25T09:54:09.250Z,413.00
2023-02-25T09:55:04.648Z,401.00
2023-02-25T09:56:00.242Z,430.00
2023-02-25T09:56:55.666Z,533.00
2023-02-25T09:57:51.199Z,547.00
2023-02-25T09:58:46.628Z,422.00
2023-02-25T09:59:41.905Z,502.00
2023-02-25T10:00:37.242Z,482.00
2023-02-25T10:01:32.589Z,522.00
2023-02-25T10:02:28.192Z,445.00
2023-02-25T10:03:23.404Z,459.00
2023-02-25T10:04:18.793Z,425.00
2023-02-25T10:05:14.201Z,407.00
2023-02-25T10:06:09.629Z,416.00
2023-02-25T10:07:05.261Z,422.00
2023-02-25T10:08:00.641Z,410.00
2023-02-25T10:08:56.062Z,397.00
2023-02-25T10:09:51.658Z,398.00
2023-02-25T10:10:47.096Z,404.00
2023-02-25T10:11:42.485Z,395.00
2023-02-25T10:12:38.081Z,400.00
2023-02-25T10:13:33.345Z,406.00
2023-02-25T10:14:28.860Z,415.00
2023-02-25T10:15:24.205Z,411.00
2023-02-25T10:16:19.462Z,414.00
2023-02-25T10:17:14.827Z,417.00
2023-02-25T10:18:10.242Z,412.00
2023-02-25T10:19:05.649Z,436.00
2023-02-25T10:20:01.242Z,434.00
2023-02-25T10:20:56.437Z,448.00
2023-02-25T10:21:51.795Z,410.00
2023-02-25T10:22:47.170Z,405.00
2023-02-25T10:23:42.538Z,437.00
2023-02-25T10:24:38.022Z,420.00
2023-02-25T10:25:33.653Z,414.00
2023-02-25T10:26:28.601Z,410.00
2023-02-25T10:27:23.961Z,412.00
2023-02-25T10:28:19.372Z,417.00
2023-02-25T10:29:14.729Z,443.00
2023-02-25T10:30:10.122Z,417.00
2023-02-25T10:31:05.858Z,426.00
2023-02-25T10:32:00.984Z,415.00
2023-02-25T10:32:56.299Z,417.00
2023-02-25T10:33:52.190Z,422.00
2023-02-25T10:34:47.576Z,428.00
2023-02-25T10:35:43.058Z,408.00
2023-02-25T10:36:38.585Z,422.00
2023-02-25T10:37:33.884Z,410.00
2023-02-25T10:38:29.241Z,410.00
2023-02-25T10:39:24.594Z,405.00
2023-02-25T10:40:19.960Z,627.00
2023-02-25T10:41:15.274Z,582.00
2023-02-25T10:42:10.625Z,493.00
2023-02-25T10:43:05.936Z,492.00
2023-02-25T10:44:01.262Z,490.00
2023-02-25T10:44:56.567Z,470.00
2023-02-25T10:45:51.954Z,446.00
2023-02-25T10:46:47.384Z,431.00
2023-02-25T10:47:42.625Z,423.00
2023-02-25T10:48:37.987Z,418.00
2023-02-25T10:49:33.428Z,432.00
2023-02-25T10:50:45.582Z,410.00
2023-02-25T10:51:25.631Z,403.00
2023-02-25T10:52:19.577Z,403.00
2023-02-25T10:53:14.974Z,411.00
2023-02-25T10:54:10.328Z,404.00
2023-02-25T10:55:05.700Z,402.00
2023-02-25T10:56:01.048Z,401.00
2023-02-25T10:56:56.649Z,405.00
2023-02-25T10:57:51.794Z,409.00
2023-02-25T10:58:47.168Z,405.00
2023-02-25T10:59:42.546Z,396.00
2023-02-25T11:00:37.626Z,393.00
2023-02-25T11:01:32.758Z,395.00
2023-02-25T11:02:27.883Z,402.00
2023-02-25T11:03:22.889Z,399.00
2023-02-25T11:04:17.837Z,393.00
2023-02-25T11:05:12.916Z,394.00
2023-02-25T11:06:08.014Z,393.00
2023-02-25T11:07:03.116Z,397.00
2023-02-25T11:07:58.238Z,392.00
2023-02-25T11:08:53.224Z,393.00
2023-02-25T11:09:48.214Z,398.00
2023-02-25T11:10:43.284Z,394.00
2023-02-25T11:11:38.411Z,391.00
2023-02-25T11:12:33.543Z,395.00
2023-02-25T11:13:28.962Z,397.00
2023-02-25T11:14:24.360Z,420.00
2023-02-25T11:15:19.722Z,401.00
2023-02-25T11:16:15.121Z,400.00
2023-02-25T11:17:10.804Z,400.00
2023-02-25T11:18:06.285Z,395.00
2023-02-25T11:19:01.731Z,392.00
2023-02-25T11:19:57.021Z,395.00
2023-02-25T11:20:52.430Z,394.00
2023-02-25T11:21:47.912Z,394.00
2023-02-25T11:22:43.396Z,392.00
2023-02-25T11:23:38.729Z,389.00
2023-02-25T11:24:34.308Z,391.00
2023-02-25T11:25:29.615Z,399.00
2023-02-25T11:26:24.614Z,397.00
2023-02-25T11:27:19.596Z,393.00
2023-02-25T11:28:14.672Z,397.00
2023-02-25T11:29:09.765Z,398.00
2023-02-25T11:30:05.057Z,398.00
2023-02-25T11:31:00.064Z,392.00
2023-02-25T11:31:55.272Z,393.00
2023-02-25T11:32:52.206Z,396.00
2023-02-25T11:33:47.172Z,400.00
2023-02-25T11:34:42.133Z,394.00
2023-02-25T11:35:37.167Z,397.00
2023-02-25T11:36:32.165Z,396.00
2023-02-25T11:37:27.229Z,393.00
2023-02-25T11:38:22.248Z,392.00
2023-02-25T11:39:17.426Z,393.00
2023-02-25T11:40:13.894Z,390.00
2023-02-25T11:41:09.311Z,394.00
2023-02-25T11:42:04.749Z,394.00
2023-02-25T11:43:00.204Z,395.00
2023-02-25T11:43:55.667Z,397.00
2023-02-25T11:44:51.363Z,392.00
2023-02-25T11:45:46.727Z,389.00
2023-02-25T11:46:42.386Z,386.00
2023-02-25T11:47:37.714Z,390.00
2023-02-25T11:48:33.105Z,392.00
2023-02-25T11:49:28.194Z,391.00
2023-02-25T11:50:23.184Z,388.00
2023-02-25T11:51:18.242Z,391.00
2023-02-25T11:52:13.331Z,393.00
2023-02-25T11:53:08.426Z,389.00
2023-02-25T11:54:03.547Z,399.00
2023-02-25T11:54:58.612Z,400.00
2023-02-25T11:55:55.984Z,399.00
2023-02-25T11:56:51.030Z,394.00
2023-02-25T11:57:46.020Z,396.00
2023-02-25T11:58:41.096Z,393.00
2023-02-25T11:59:36.112Z,401.00
2023-02-25T12:00:31.196Z,403.00
2023-02-25T12:01:26.448Z,400.00
2023-02-25T12:02:21.565Z,398.00
2023-02-25T12:03:16.932Z,405.00
2023-02-25T12:04:12.406Z,396.00
2023-02-25T12:05:08.148Z,396.00
2023-02-25T12:06:03.533Z,390.00
2023-02-25T12:06:58.898Z,397.00
2023-02-25T12:08:11.951Z,390.00
2023-02-25T12:10:13.581Z,396.00
2023-02-25T12:11:09.145Z,393.00
2023-02-25T12:12:06.192Z,393.00
2023-02-25T12:12:59.808Z,397.00
2023-02-25T12:13:55.458Z,398.00
2023-02-25T12:14:50.946Z,395.00
2023-02-25T12:15:46.449Z,405.00
2023-02-25T12:16:42.635Z,400.00
2023-02-25T12:17:37.578Z,394.00
2023-02-25T12:18:33.296Z,397.00
2023-02-25T12:19:28.506Z,394.00
2023-02-25T12:20:23.995Z,391.00
2023-02-25T12:21:19.537Z,389.00
2023-02-25T12:22:15.303Z,388.00
2023-02-25T12:23:10.670Z,389.00
2023-02-25T12:24:06.230Z,390.00
2023-02-25T12:25:01.741Z,399.00
2023-02-25T12:25:57.127Z,403.00
2023-02-25T12:26:52.634Z,397.00
2023-02-25T12:27:48.353Z,401.00
2023-02-25T12:28:43.695Z,406.00
2023-02-25T12:29:39.182Z,399.00
2023-02-25T12:30:34.679Z,404.00
2023-02-25T12:31:30.376Z,406.00
2023-02-25T12:32:25.651Z,415.00
2023-02-25T12:33:20.880Z,408.00
2023-02-25T12:34:16.367Z,397.00
2023-02-25T12:35:11.653Z,403.00
2023-02-25T12:36:07.202Z,403.00
2023-02-25T12:37:02.764Z,399.00
2023-02-25T12:37:57.983Z,401.00
2023-02-25T12:38:53.395Z,400.00
2023-02-25T12:39:49.050Z,402.00
2023-02-25T12:40:44.316Z,398.00
2023-02-25T12:41:42.008Z,401.00
2023-02-25T12:42:35.142Z,404.00
2023-02-25T12:43:30.608Z,402.00
2023-02-25T12:44:26.287Z,403.00
2023-02-25T12:45:21.493Z,401.00
2023-02-25T12:46:16.886Z,399.00
2023-02-25T12:47:12.313Z,396.00
2023-02-25T12:48:07.777Z,395.00
2023-02-25T12:49:03.320Z,400.00
2023-02-25T12:49:58.753Z,399.00
2023-02-25T12:50:54.080Z,404.00
2023-02-25T12:51:49.605Z,400.00
2023-02-25T12:52:44.954Z,391.00
2023-02-25T12:53:40.370Z,395.00
2023-02-25T12:54:35.849Z,394.00
2023-02-25T12:55:31.285Z,402.00
2023-02-25T12:56:26.880Z,404.00
2023-02-25T12:57:22.282Z,396.00
2023-02-25T12:58:18.682Z,404.00
2023-02-25T12:59:13.182Z,401.00
2023-02-25T13:00:08.617Z,403.00
2023-02-25T13:01:04.373Z,402.00
2023-02-25T13:01:59.751Z,407.00
2023-02-25T13:02:55.045Z,406.00
2023-02-25T13:03:51.500Z,398.00
2023-02-25T13:04:45.940Z,404.00
2023-02-25T13:05:41.580Z,404.00
2023-02-25T13:06:37.083Z,404.00
2023-02-25T13:07:32.574Z,402.00
2023-02-25T13:08:28.280Z,403.00
2023-02-25T13:09:23.586Z,398.00
2023-02-25T13:10:18.977Z,399.00
2023-02-25T13:11:14.297Z,398.00
2023-02-25T13:12:11.879Z,398.00
2023-02-25T13:13:05.371Z,406.00
2023-02-25T13:14:01.395Z,410.00
2023-02-25T13:14:56.362Z,403.00
2023-02-25T13:15:53.871Z,392.00
2023-02-25T13:16:47.146Z,407.00
2023-02-25T13:17:42.584Z,408.00
2023-02-25T13:18:38.124Z,418.00
2023-02-25T13:19:33.404Z,404.00
2023-02-25T13:20:28.977Z,402.00
2023-02-25T13:21:24.615Z,408.00
2023-02-25T13:22:19.642Z,400.00
2023-02-25T13:23:15.061Z,394.00
2023-02-25T13:24:10.546Z,393.00
2023-02-25T13:25:05.977Z,398.00
2023-02-25T13:26:01.652Z,402.00
2023-02-25T13:26:56.860Z,407.00
2023-02-25T13:27:53.721Z,398.00
2023-02-25T13:28:47.830Z,396.00
2023-02-25T13:29:43.352Z,394.00
2023-02-25T13:30:38.933Z,424.00
2023-02-25T13:31:34.320Z,400.00
2023-02-25T13:32:29.955Z,395.00
2023-02-25T13:33:25.314Z,403.00
2023-02-25T13:34:20.749Z,401.00
2023-02-25T13:35:16.210Z,402.00
2023-02-25T13:36:11.629Z,407.00
2023-02-25T13:37:07.100Z,410.00
2023-02-25T13:38:02.833Z,411.00
2023-02-25T13:38:58.167Z,400.00
2023-02-25T13:39:53.600Z,406.00
2023-02-25T13:40:49.249Z,402.00
2023-02-25T13:41:44.580Z,418.00
2023-02-25T13:42:40.101Z,412.00
2023-02-25T13:43:35.450Z,404.00
2023-02-25T13:44:30.956Z,418.00
2023-02-25T13:45:26.567Z,410.00
2023-02-25T13:46:21.859Z,403.00
2023-02-25T13:47:17.269Z,414.00
2023-02-25T13:48:12.794Z,410.00
2023-02-25T13:49:08.035Z,404.00
2023-02-25T13:50:03.444Z,410.00
2023-02-25T13:50:58.807Z,393.00
2023-02-25T13:51:54.266Z,398.00
2023-02-25T13:52:49.664Z,404.00
2023-02-25T13:53:45.061Z,406.00
2023-02-25T13:54:40.434Z,402.00
2023-02-25T13:55:35.782Z,406.00
2023-02-25T13:56:31.189Z,404.00
2023-02-25T13:57:26.637Z,404.00
2023-02-25T13:58:22.295Z,400.00
2023-02-25T13:59:17.617Z,402.00
2023-02-25T14:00:12.947Z,405.00
2023-02-25T14:01:08.578Z,409.00
2023-02-25T14:02:03.868Z,420.00
2023-02-25T14:02:59.233Z,414.00
2023-02-25T14:03:54.614Z,402.00
2023-02-25T14:04:50.102Z,415.00
2023-02-25T14:05:45.357Z,408.00
2023-02-25T14:06:40.868Z,418.00
2023-02-25T14:07:36.077Z,420.00
2023-02-25T14:08:31.569Z,406.00
2023-02-25T14:09:26.869Z,398.00
2023-02-25T14:10:22.216Z,405.00
2023-02-25T14:11:17.649Z,403.00
2023-02-25T14:12:13.411Z,401.00
2023-02-25T14:13:08.421Z,407.00
2023-02-25T14:14:03.986Z,410.00
2023-02-25T14:14:59.534Z,408.00
2023-02-25T14:15:54.912Z,407.00
2023-02-25T14:16:51.509Z,402.00
2023-02-25T14:17:45.679Z,400.00
2023-02-25T14:18:41.098Z,404.00
2023-02-25T14:19:37.332Z,407.00
2023-02-25T14:20:31.917Z,397.00
2023-02-25T14:21:27.482Z,404.00
2023-02-25T14:22:22.808Z,407.00
2023-02-25T14:23:18.238Z,407.00
2023-02-25T14:24:14.020Z,406.00
2023-02-25T14:25:09.189Z,407.00
2023-02-25T14:26:04.598Z,401.00
2023-02-25T14:27:00.121Z,396.00
2023-02-25T14:27:55.421Z,402.00
2023-02-25T14:28:50.858Z,402.00
2023-02-25T14:29:46.423Z,413.00
2023-02-25T14:30:41.921Z,412.00
2023-02-25T14:31:37.253Z,408.00
2023-02-25T14:32:33.192Z,402.00
2023-02-25T14:33:28.068Z,417.00
2023-02-25T14:34:23.575Z,407.00
2023-02-25T14:35:19.033Z,401.00
2023-02-25T14:36:14.325Z,398.00
2023-02-25T14:37:09.880Z,408.00
2023-02-25T14:38:05.267Z,431.00
2023-02-25T14:39:00.664Z,419.00
2023-02-25T14:39:56.118Z,405.00
2023-02-25T14:40:51.659Z,397.00
2023-02-25T14:41:47.058Z,401.00
2023-02-25T14:42:42.392Z,400.00
2023-02-25T14:43:37.950Z,401.00
2023-02-25T14:44:33.506Z,412.00
2023-02-25T14:45:28.753Z,402.00
2023-02-25T14:46:24.162Z,398.00
2023-02-25T14:47:19.491Z,401.00
2023-02-25T14:48:14.926Z,405.00
2023-02-25T14:49:10.468Z,425.00
2023-02-25T14:50:05.916Z,402.00
2023-02-25T14:51:01.381Z,408.00
2023-02-25T14:51:56.798Z,401.00
2023-02-25T14:52:52.344Z,401.00
2023-02-25T14:53:47.679Z,401.00
2023-02-25T14:54:42.876Z,401.00
2023-02-25T14:55:38.300Z,400.00
2023-02-25T14:56:33.656Z,400.00
2023-02-25T14:57:29.012Z,409.00
2023-02-25T14:58:24.392Z,411.00
2023-02-25T14:59:19.762Z,407.00
2023-02-25T15:00:15.138Z,405.00
2023-02-25T15:01:10.623Z,404.00
2023-02-25T15:02:05.977Z,398.00
2023-02-25T15:03:01.517Z,392.00
2023-02-25T15:03:56.808Z,395.00
2023-02-25T15:04:52.229Z,403.00
2023-02-25T15:05:47.664Z,401.00
2023-02-25T15:06:43.275Z,401.00
2023-02-25T15:07:38.805Z,396.00
2023-02-25T15:08:34.127Z,403.00
2023-02-25T15:09:29.526Z,394.00
2023-02-25T15:10:24.959Z,403.00
2023-02-25T15:11:20.336Z,405.00
2023-02-25T15:12:15.815Z,394.00
2023-02-25T15:13:11.057Z,406.00
2023-02-25T15:14:06.484Z,401.00
2023-02-25T15:15:01.881Z,402.00
2023-02-25T15:15:57.401Z,403.00
2023-02-25T15:16:52.772Z,401.00
2023-02-25T15:17:47.972Z,402.00
2023-02-25T15:18:43.352Z,406.00
2023-02-25T15:19:38.726Z,401.00
2023-02-25T15:20:34.181Z,401.00
2023-02-25T15:21:29.457Z,398.00
2023-02-25T15:22:24.832Z,405.00
2023-02-25T15:23:20.181Z,410.00
2023-02-25T15:24:15.519Z,402.00
2023-02-25T15:25:10.918Z,400.00
2023-02-25T15:26:06.405Z,406.00
2023-02-25T15:27:01.698Z,395.00
2023-02-25T15:27:57.218Z,398.00
2023-02-25T15:28:52.465Z,396.00
2023-02-25T15:29:48.371Z,399.00
2023-02-25T15:30:43.774Z,405.00
2023-02-25T15:31:39.323Z,415.00
2023-02-25T15:32:34.616Z,409.00
2023-02-25T15:33:29.964Z,406.00
2023-02-25T15:34:25.383Z,409.00
2023-02-25T15:35:20.765Z,409.00
2023-02-25T15:36:16.279Z,399.00
2023-02-25T15:37:11.518Z,399.00
2023-02-25T15:38:07.095Z,400.00
2023-02-25T15:39:02.208Z,404.00
2023-02-25T15:39:57.548Z,405.00
2023-02-25T15:40:52.937Z,398.00
2023-02-25T15:41:48.349Z,400.00
2023-02-25T15:42:43.724Z,397.00
2023-02-25T15:43:39.099Z,398.00
2023-02-25T15:44:34.509Z,397.00
2023-02-25T15:45:29.923Z,405.00
2023-02-25T15:46:24.924Z,401.00
2023-02-25T15:47:20.036Z,401.00
2023-02-25T15:48:14.990Z,409.00
2023-02-25T15:49:10.140Z,402.00
2023-02-25T15:50:05.234Z,401.00
2023-02-25T15:51:00.343Z,416.00
2023-02-25T15:51:55.517Z,409.00
2023-02-25T15:52:50.573Z,404.00
2023-02-25T15:53:45.759Z,401.00
2023-02-25T15:54:40.880Z,410.00
2023-02-25T15:55:35.918Z,410.00
2023-02-25T15:56:31.152Z,412.00
2023-02-25T15:57:26.036Z,409.00
2023-02-25T15:58:21.098Z,399.00
2023-02-25T15:59:16.136Z,396.00
2023-02-25T16:00:11.222Z,402.00
2023-02-25T16:01:06.220Z,394.00
2023-02-25T16:02:01.254Z,406.00
2023-02-25T16:02:58.359Z,396.00
2023-02-25T16:03:51.536Z,406.00
2023-02-25T16:04:46.983Z,408.00
2023-02-25T16:05:42.545Z,402.00
2023-02-25T16:06:37.985Z,400.00
2023-02-25T16:07:33.403Z,398.00
2023-02-25T16:08:29.296Z,400.00
2023-02-25T16:09:24.315Z,400.00
2023-02-25T16:10:19.680Z,398.00
2023-02-25T16:11:15.337Z,392.00
2023-02-25T16:12:10.758Z,397.00
2023-02-25T16:13:06.124Z,396.00
2023-02-25T16:14:01.769Z,404.00
2023-02-25T16:14:57.345Z,404.00
2023-02-25T16:15:51.942Z,394.00
2023-02-25T16:16:46.935Z,401.00
2023-02-25T16:17:42.020Z,407.00
2023-02-25T16:18:37.165Z,417.00
2023-02-25T16:19:32.071Z,406.00
2023-02-25T16:20:27.048Z,409.00
2023-02-25T16:21:22.494Z,410.00
2023-02-25T16:22:18.840Z,411.00
2023-02-25T16:23:13.837Z,415.00
2023-02-25T16:24:09.014Z,400.00
2023-02-25T16:25:03.996Z,397.00
2023-02-25T16:25:59.107Z,401.00
2023-02-25T16:26:54.195Z,402.00
2023-02-25T16:27:49.269Z,405.00
2023-02-25T16:28:44.229Z,407.00
2023-02-25T16:29:39.378Z,409.00
2023-02-25T16:30:34.276Z,411.00
2023-02-25T16:31:29.660Z,411.00
2023-02-25T16:32:24.558Z,410.00
2023-02-25T16:33:19.739Z,414.00
2023-02-25T16:34:14.641Z,410.00
2023-02-25T16:35:09.728Z,405.00
2023-02-25T16:36:07.810Z,405.00
2023-02-25T16:37:02.838Z,410.00
2023-02-25T16:37:57.844Z,406.00
2023-02-25T16:38:53.051Z,411.00
2023-02-25T16:39:47.888Z,412.00
2023-02-25T16:40:42.971Z,403.00
2023-02-25T16:41:39.372Z,398.00
2023-02-25T16:42:33.056Z,412.00
2023-02-25T16:43:28.072Z,407.00
2023-02-25T16:44:23.070Z,413.00
2023-02-25T16:45:18.138Z,414.00
2023-02-25T16:46:13.168Z,418.00
2023-02-25T16:47:08.393Z,404.00
2023-02-25T16:48:04.208Z,408.00
2023-02-25T16:48:59.414Z,414.00
2023-02-25T16:49:54.642Z,409.00
2023-02-25T16:50:50.652Z,412.00
2023-02-25T16:51:45.753Z,409.00
2023-02-25T16:52:41.615Z,417.00
2023-02-25T16:53:36.675Z,411.00
2023-02-25T16:54:31.837Z,395.00
2023-02-25T16:55:27.753Z,408.00
2023-02-25T16:56:23.515Z,403.00
2023-02-25T16:57:18.252Z,406.00
2023-02-25T16:58:13.285Z,408.00
2023-02-25T16:59:08.418Z,411.00
2023-02-25T17:00:03.519Z,405.00
2023-02-25T17:00:59.329Z,400.00
2023-02-25T17:01:53.444Z,407.00
2023-02-25T17:02:48.558Z,406.00
2023-02-25T17:03:43.737Z,425.00
2023-02-25T17:04:44.342Z,419.00
2023-02-25T17:05:39.619Z,415.00
2023-02-25T17:06:34.683Z,409.00
2023-02-25T17:07:30.427Z,414.00
2023-02-25T17:08:25.615Z,413.00
2023-02-25T17:09:20.887Z,408.00
2023-02-25T17:10:17.405Z,409.00
2023-02-25T17:11:12.683Z,413.00
2023-02-25T17:12:08.456Z,421.00
2023-02-25T17:13:03.573Z,407.00
2023-02-25T17:13:59.019Z,403.00
2023-02-25T17:14:54.605Z,398.00
2023-02-25T17:15:49.923Z,409.00
2023-02-25T17:16:45.770Z,409.00
2023-02-25T17:17:40.885Z,409.00
2023-02-25T17:18:36.301Z,405.00
2023-02-25T17:19:32.049Z,407.00
2023-02-25T17:20:27.326Z,408.00
2023-02-25T17:21:22.318Z,410.00
2023-02-25T17:22:19.116Z,410.00
2023-02-25T17:23:14.009Z,409.00
2023-02-25T17:24:09.853Z,413.00
2023-02-25T17:25:04.989Z,403.00
2023-02-25T17:26:00.142Z,411.00
2023-02-25T17:26:56.041Z,405.00
2023-02-25T17:27:51.280Z,412.00
2023-02-25T17:28:46.975Z,406.00
2023-02-25T17:29:42.049Z,412.00
2023-02-25T17:30:37.444Z,416.00
2023-02-25T17:31:33.344Z,408.00
2023-02-25T17:32:28.461Z,397.00
2023-02-25T17:33:26.240Z,398.00
2023-02-25T17:34:18.632Z,396.00
2023-02-25T17:35:13.780Z,404.00
2023-02-25T17:36:09.706Z,405.00
2023-02-25T17:37:04.696Z,405.00
2023-02-25T17:38:00.522Z,405.00
2023-02-25T17:38:55.710Z,400.00
2023-02-25T17:39:51.016Z,398.00
2023-02-25T17:40:46.520Z,400.00
2023-02-25T17:41:41.670Z,404.00
2023-02-25T17:42:36.754Z,400.00
2023-02-25T17:43:33.112Z,399.00
2023-02-25T17:44:28.253Z,390.00
2023-02-25T17:45:24.089Z,394.00
2023-02-25T17:46:19.263Z,391.00
2023-02-25T17:47:14.516Z,405.00
2023-02-25T17:48:10.397Z,402.00
2023-02-25T17:49:05.745Z,402.00
2023-02-25T17:50:00.669Z,396.00
2023-02-25T17:50:55.834Z,400.00
2023-02-25T17:51:50.929Z,398.00
2023-02-25T17:52:46.040Z,407.00
2023-02-25T17:53:41.199Z,402.00
2023-02-25T17:54:36.231Z,401.00
2023-02-25T17:55:31.228Z,408.00
2023-02-25T17:56:26.743Z,408.00
2023-02-25T17:57:21.313Z,407.00
2023-02-25T17:58:16.513Z,412.00
2023-02-25T17:59:11.532Z,429.00
2023-02-25T18:00:06.555Z,412.00
2023-02-25T18:01:01.863Z,413.00
2023-02-25T18:01:58.481Z,412.00
2023-02-25T18:02:53.648Z,414.00
2023-02-25T18:03:48.810Z,407.00
2023-02-25T18:04:44.157Z,405.00
2023-02-25T18:05:39.191Z,402.00
2023-02-25T18:06:34.369Z,404.00
2023-02-25T18:07:30.533Z,411.00
2023-02-25T18:08:25.655Z,399.00
2023-02-25T18:09:34.845Z,410.00
2023-02-25T18:10:15.960Z,406.00
2023-02-25T18:11:10.971Z,412.00
2023-02-25T18:12:06.146Z,402.00
2023-02-25T18:13:01.018Z,400.00
2023-02-25T18:13:56.174Z,420.00
2023-02-25T18:14:51.071Z,414.00
2023-02-25T18:15:50.846Z,414.00
2023-02-25T18:16:42.465Z,422.00
2023-02-25T18:17:36.208Z,428.00
2023-02-25T18:18:31.237Z,416.00
2023-02-25T18:19:26.328Z,414.00
2023-02-25T18:20:21.463Z,409.00
2023-02-25T18:21:20.320Z,412.00
2023-02-25T18:22:15.153Z,414.00
2023-02-25T18:23:10.143Z,420.00
2023-02-25T18:24:05.234Z,418.00
2023-02-25T18:25:00.480Z,415.00
2023-02-25T18:25:55.349Z,418.00
2023-02-25T18:26:50.430Z,411.00
2023-02-25T18:27:45.427Z,414.00
2023-02-25T18:28:40.526Z,411.00
2023-02-25T18:29:35.490Z,414.00
2023-02-25T18:30:30.593Z,413.00
2023-02-25T18:31:25.873Z,415.00
2023-02-25T18:32:21.392Z,415.00
2023-02-25T18:33:15.957Z,414.00
2023-02-25T18:34:11.362Z,410.00
2023-02-25T18:35:07.076Z,411.00
2023-02-25T18:36:02.215Z,408.00
2023-02-25T18:36:58.014Z,404.00
2023-02-25T18:37:53.301Z,405.00
2023-02-25T18:38:48.584Z,420.00
2023-02-25T18:39:44.314Z,414.00
2023-02-25T18:40:39.424Z,1261.00
2023-02-25T18:41:34.618Z,1308.00
2023-02-25T18:42:31.012Z,680.00
2023-02-25T18:43:26.138Z,685.00
2023-02-25T18:44:21.890Z,536.00
2023-02-25T18:45:17.117Z,466.00
2023-02-25T18:46:12.219Z,453.00
2023-02-25T18:47:08.080Z,445.00
2023-02-25T18:48:03.348Z,441.00
2023-02-25T18:48:58.961Z,441.00
2023-02-25T18:49:54.006Z,444.00
2023-02-25T18:50:49.409Z,423.00
2023-02-25T18:51:44.888Z,431.00
2023-02-25T18:52:40.099Z,430.00
2023-02-25T18:53:35.201Z,427.00
2023-02-25T18:54:31.600Z,431.00
2023-02-25T18:55:26.724Z,430.00
2023-02-25T18:56:22.860Z,421.00
2023-02-25T18:57:17.757Z,436.00
2023-02-25T18:58:12.982Z,437.00
2023-02-25T18:59:08.698Z,433.00
2023-02-25T19:00:03.859Z,415.00
2023-02-25T19:00:59.822Z,419.00
2023-02-25T19:01:54.919Z,413.00
2023-02-25T19:02:50.103Z,417.00
2023-02-25T19:03:45.969Z,415.00
2023-02-25T19:04:41.068Z,415.00
2023-02-25T19:05:36.458Z,412.00
2023-02-25T19:06:32.656Z,419.00
2023-02-25T19:07:28.025Z,410.00
2023-02-25T19:08:23.267Z,415.00
2023-02-25T19:09:18.857Z,416.00
2023-02-25T19:10:14.032Z,406.00
2023-02-25T19:11:09.883Z,414.00
2023-02-25T19:12:04.945Z,401.00
2023-02-25T19:13:00.349Z,409.00
2023-02-25T19:13:56.137Z,405.00
2023-02-25T19:14:51.336Z,409.00
2023-02-25T19:15:46.457Z,405.00
2023-02-25T19:16:42.959Z,410.00
2023-02-25T19:17:38.096Z,421.00
2023-02-25T19:18:34.023Z,412.00
2023-02-25T19:19:29.097Z,414.00
2023-02-25T19:20:24.262Z,411.00
2023-02-25T19:21:20.056Z,410.00
2023-02-25T19:22:15.207Z,413.00
2023-02-25T19:23:10.492Z,400.00
2023-02-25T19:24:05.455Z,407.00
2023-02-25T19:25:00.576Z,399.00
2023-02-25T19:25:55.835Z,401.00
2023-02-25T19:26:50.946Z,399.00
2023-02-25T19:27:45.962Z,393.00
2023-02-25T19:28:41.025Z,386.00
2023-02-25T19:29:36.030Z,394.00
2023-02-25T19:30:31.037Z,391.00
2023-02-25T19:31:26.067Z,387.00
2023-02-25T19:32:21.038Z,398.00
2023-02-25T19:33:16.181Z,397.00
2023-02-25T19:34:11.164Z,403.00
2023-02-25T19:35:06.276Z,397.00
2023-02-25T19:36:01.330Z,402.00
2023-02-25T19:36:56.374Z,398.00
2023-02-25T19:37:51.456Z,394.00
2023-02-25T19:38:46.594Z,396.00
2023-02-25T19:39:41.693Z,400.00
2023-02-25T19:40:36.684Z,403.00
2023-02-25T19:41:31.658Z,401.00
2023-02-25T19:42:26.790Z,396.00
2023-02-25T19:43:21.994Z,398.00
2023-02-25T19:44:17.008Z,397.00
2023-02-25T19:45:12.084Z,397.00
2023-02-25T19:46:07.147Z,397.00
2023-02-25T19:47:02.151Z,399.00
2023-02-25T19:47:57.158Z,400.00
2023-02-25T19:48:52.276Z,406.00
2023-02-25T19:49:47.380Z,407.00
2023-02-25T19:50:42.391Z,405.00
2023-02-25T19:51:37.485Z,398.00
2023-02-25T19:52:32.469Z,402.00
2023-02-25T19:53:27.919Z,399.00
2023-02-25T19:54:24.105Z,407.00
2023-02-25T19:55:17.759Z,399.00
2023-02-25T19:56:12.829Z,398.00
2023-02-25T19:57:07.974Z,398.00
2023-02-25T19:58:02.979Z,399.00
2023-02-25T19:58:58.125Z,400.00
2023-02-25T19:59:52.956Z,402.00
2023-02-25T20:00:48.101Z,398.00
2023-02-25T20:01:43.364Z,401.00
2023-02-25T20:02:38.467Z,399.00
2023-02-25T20:03:33.754Z,401.00
2023-02-25T20:04:29.532Z,402.00
2023-02-25T20:05:24.681Z,400.00
2023-02-25T20:06:20.623Z,408.00
2023-02-25T20:07:15.612Z,406.00
2023-02-25T20:08:11.116Z,403.00